sensor_id;sensor_type;location;lat;lon;timestamp;pressure;altitude;pressure_sealevel;temperature;humidity
5595;BME280;1003;48.002;7.788;2023-02-19T00:01:08;100178.69;;;10.42;100.00
5595;BME280;1003;48.002;7.788;2023-02-19T00:03:38;100174.50;;;10.39;100.00
5595;BME280;1003;48.002;7.788;2023-02-19T00:06:08;100169.44;;;10.35;100.00
5595;BME280;1003;48.002;7.788;2023-02-19T00:08:38;100176.97;;;10.35;100.00
5595;BME280;1003;48.002;7.788;2023-02-19T00:11:10;100166.97;;;10.44;100.00
5595;BME280;1003;48.002;7.788;2023-02-19T00:13:40;100144.28;;;10.38;100.00
5595;BME280;1003;48.002;7.788;2023-02-19T00:16:09;100143.53;;;10.48;100.00
5595;BME280;1003;48.002;7.788;2023-02-19T00:18:39;100132.63;;;10.47;100.00
5595;BME280;1003;48.002;7.788;2023-02-19T00:21:07;100125.91;;;10.42;100.00
5595;BME280;1003;48.002;7.788;2023-02-19T00:23:34;100136.78;;;10.41;100.00
5595;BME280;1003;48.002;7.788;2023-02-19T00:26:02;100141.88;;;10.50;100.00
5595;BME280;1003;48.002;7.788;2023-02-19T00:28:30;100131.75;;;10.39;100.00
5595;BME280;1003;48.002;7.788;2023-02-19T00:31:04;100130.06;;;10.38;100.00
5595;BME280;1003;48.002;7.788;2023-02-19T00:33:32;100134.25;;;10.38;100.00
5595;BME280;1003;48.002;7.788;2023-02-19T00:36:01;100133.38;;;10.30;100.00
5595;BME280;1003;48.002;7.788;2023-02-19T00:38:28;100130.03;;;10.31;100.00
5595;BME280;1003;48.002;7.788;2023-02-19T00:40:57;100135.94;;;10.39;100.00
5595;BME280;1003;48.002;7.788;2023-02-19T00:43:25;100125.88;;;10.37;100.00
5595;BME280;1003;48.002;7.788;2023-02-19T00:45:52;100127.50;;;10.32;100.00
5595;BME280;1003;48.002;7.788;2023-02-19T00:48:19;100114.91;;;10.26;100.00
5595;BME280;1003;48.002;7.788;2023-02-19T00:50:46;100110.75;;;10.33;100.00
5595;BME280;1003;48.002;7.788;2023-02-19T00:53:14;100097.34;;;10.31;100.00
5595;BME280;1003;48.002;7.788;2023-02-19T00:55:42;100104.03;;;10.24;100.00
5595;BME280;1003;48.002;7.788;2023-02-19T00:58:09;100099.88;;;10.29;100.00
5595;BME280;1003;48.002;7.788;2023-02-19T01:00:36;100084.81;;;10.34;100.00
5595;BME280;1003;48.002;7.788;2023-02-19T01:03:03;100089.88;;;10.40;100.00
5595;BME280;1003;48.002;7.788;2023-02-19T01:05:30;100083.19;;;10.48;100.00
5595;BME280;1003;48.002;7.788;2023-02-19T01:07:57;100089.94;;;10.50;100.00
5595;BME280;1003;48.002;7.788;2023-02-19T01:10:26;100086.56;;;10.48;100.00
5595;BME280;1003;48.002;7.788;2023-02-19T01:12:53;100084.88;;;10.44;100.00
5595;BME280;1003;48.002;7.788;2023-02-19T01:15:20;100086.53;;;10.42;100.00
5595;BME280;1003;48.002;7.788;2023-02-19T01:17:47;100077.34;;;10.54;100.00
5595;BME280;1003;48.002;7.788;2023-02-19T01:20:14;100071.50;;;10.50;100.00
5595;BME280;1003;48.002;7.788;2023-02-19T01:22:41;100076.53;;;10.53;100.00
5595;BME280;1003;48.002;7.788;2023-02-19T01:25:08;100064.78;;;10.44;100.00
5595;BME280;1003;48.002;7.788;2023-02-19T01:27:37;100063.97;;;10.50;100.00
5595;BME280;1003;48.002;7.788;2023-02-19T01:30:05;100057.28;;;10.58;100.00
5595;BME280;1003;48.002;7.788;2023-02-19T01:32:32;100039.75;;;10.72;100.00
5595;BME280;1003;48.002;7.788;2023-02-19T01:34:59;100031.34;;;10.70;100.00
5595;BME280;1003;48.002;7.788;2023-02-19T01:37:26;100018.75;;;10.65;100.00
5595;BME280;1003;48.002;7.788;2023-02-19T01:39:53;100022.13;;;10.66;100.00
5595;BME280;1003;48.002;7.788;2023-02-19T01:42:20;100000.31;;;10.63;100.00
5595;BME280;1003;48.002;7.788;2023-02-19T01:45:22;99994.44;;;10.63;100.00
5595;BME280;1003;48.002;7.788;2023-02-19T01:47:55;99986.94;;;10.72;100.00
5595;BME280;1003;48.002;7.788;2023-02-19T01:50:27;99986.94;;;10.66;100.00
5595;BME280;1003;48.002;7.788;2023-02-19T01:52:55;100005.34;;;10.68;100.00
5595;BME280;1003;48.002;7.788;2023-02-19T01:55:23;100006.19;;;10.68;100.00
5595;BME280;1003;48.002;7.788;2023-02-19T01:57:53;100006.19;;;10.67;100.00
5595;BME280;1003;48.002;7.788;2023-02-19T02:00:23;99984.38;;;10.64;100.00
5595;BME280;1003;48.002;7.788;2023-02-19T02:02:53;99978.53;;;10.68;100.00
5595;BME280;1003;48.002;7.788;2023-02-19T02:05:36;99977.69;;;10.68;100.00
5595;BME280;1003;48.002;7.788;2023-02-19T02:08:08;99973.53;;;10.73;100.00
5595;BME280;1003;48.002;7.788;2023-02-19T02:10:54;99967.66;;;10.68;100.00
5595;BME280;1003;48.002;7.788;2023-02-19T02:13:23;99973.53;;;10.74;100.00
5595;BME280;1003;48.002;7.788;2023-02-19T02:16:09;99974.38;;;10.83;100.00
5595;BME280;1003;48.002;7.788;2023-02-19T02:18:52;99960.94;;;10.68;100.00
5595;BME280;1003;48.002;7.788;2023-02-19T02:21:52;99969.28;;;10.58;100.00
5595;BME280;1003;48.002;7.788;2023-02-19T02:24:52;99952.53;;;10.63;100.00
5595;BME280;1003;48.002;7.788;2023-02-19T02:27:41;99954.19;;;10.60;100.00
5595;BME280;1003;48.002;7.788;2023-02-19T02:30:28;99950.88;;;10.67;100.00
5595;BME280;1003;48.002;7.788;2023-02-19T02:33:05;99947.53;;;10.62;100.00
5595;BME280;1003;48.002;7.788;2023-02-19T02:35:44;99944.16;;;10.70;100.00
5595;BME280;1003;48.002;7.788;2023-02-19T02:38:17;99943.34;;;10.70;100.00
5595;BME280;1003;48.002;7.788;2023-02-19T02:40:47;99947.53;;;10.63;100.00
5595;BME280;1003;48.002;7.788;2023-02-19T02:43:14;99954.22;;;10.55;100.00
5595;BME280;1003;48.002;7.788;2023-02-19T02:45:42;99963.44;;;10.59;100.00
5595;BME280;1003;48.002;7.788;2023-02-19T02:51:13;99964.28;;;10.57;100.00
5595;BME280;1003;48.002;7.788;2023-02-19T02:53:47;99955.88;;;10.50;100.00
5595;BME280;1003;48.002;7.788;2023-02-19T02:56:35;99957.53;;;10.45;100.00
5595;BME280;1003;48.002;7.788;2023-02-19T02:59:07;99946.63;;;10.43;100.00
5595;BME280;1003;48.002;7.788;2023-02-19T03:01:42;99931.56;;;10.41;100.00
5595;BME280;1003;48.002;7.788;2023-02-19T03:04:34;99942.47;;;10.46;100.00
5595;BME280;1003;48.002;7.788;2023-02-19T03:07:27;99945.81;;;10.50;100.00
5595;BME280;1003;48.002;7.788;2023-02-19T03:09:58;99953.34;;;10.39;100.00
5595;BME280;1003;48.002;7.788;2023-02-19T03:12:28;99955.00;;;10.36;100.00
5595;BME280;1003;48.002;7.788;2023-02-19T03:15:17;99961.69;;;10.43;100.00
5595;BME280;1003;48.002;7.788;2023-02-19T03:18:07;99949.13;;;10.34;100.00
5595;BME280;1003;48.002;7.788;2023-02-19T03:20:57;99906.41;;;10.41;100.00
5595;BME280;1003;48.002;7.788;2023-02-19T03:23:29;99895.50;;;10.29;100.00
5595;BME280;1003;48.002;7.788;2023-02-19T03:26:14;99928.97;;;10.23;100.00
5595;BME280;1003;48.002;7.788;2023-02-19T03:28:46;99954.13;;;10.24;100.00
5595;BME280;1003;48.002;7.788;2023-02-19T03:31:36;99956.56;;;10.18;100.00
5595;BME280;1003;48.002;7.788;2023-02-19T03:34:11;99965.78;;;10.21;100.00
5595;BME280;1003;48.002;7.788;2023-02-19T03:36:45;99962.44;;;10.22;100.00
5595;BME280;1003;48.002;7.788;2023-02-19T03:39:19;99974.13;;;10.17;100.00
5595;BME280;1003;48.002;7.788;2023-02-19T03:41:57;99976.66;;;10.17;100.00
5595;BME280;1003;48.002;7.788;2023-02-19T03:44:37;99962.44;;;10.22;100.00
5595;BME280;1003;48.002;7.788;2023-02-19T03:47:15;99962.53;;;10.34;100.00
5595;BME280;1003;48.002;7.788;2023-02-19T03:49:50;99959.97;;;10.25;100.00
5595;BME280;1003;48.002;7.788;2023-02-19T03:52:33;99955.78;;;10.25;100.00
5595;BME280;1003;48.002;7.788;2023-02-19T03:55:09;99957.47;;;10.30;100.00
5595;BME280;1003;48.002;7.788;2023-02-19T03:57:48;99960.03;;;10.36;100.00
5595;BME280;1003;48.002;7.788;2023-02-19T04:00:24;99940.75;;;10.33;100.00
5595;BME280;1003;48.002;7.788;2023-02-19T04:03:00;99942.44;;;10.40;100.00
5595;BME280;1003;48.002;7.788;2023-02-19T04:05:31;99956.69;;;10.40;100.00
5595;BME280;1003;48.002;7.788;2023-02-19T04:08:07;99946.66;;;10.44;100.00
5595;BME280;1003;48.002;7.788;2023-02-19T04:10:38;99939.09;;;10.46;100.00
5595;BME280;1003;48.002;7.788;2023-02-19T04:13:12;99935.78;;;10.50;100.00
5595;BME280;1003;48.002;7.788;2023-02-19T04:15:43;99926.56;;;10.52;100.00
5595;BME280;1003;48.002;7.788;2023-02-19T04:18:17;99919.81;;;10.43;100.00
5595;BME280;1003;48.002;7.788;2023-02-19T04:20:47;99909.78;;;10.39;100.00
5595;BME280;1003;48.002;7.788;2023-02-19T04:23:20;99918.97;;;10.37;100.00
5595;BME280;1003;48.002;7.788;2023-02-19T04:25:53;99914.81;;;10.39;100.00
5595;BME280;1003;48.002;7.788;2023-02-19T04:28:22;99915.63;;;10.29;100.00
5595;BME280;1003;48.002;7.788;2023-02-19T04:30:49;99913.06;;;10.22;100.00
5595;BME280;1003;48.002;7.788;2023-02-19T04:33:16;99914.69;;;10.20;100.00
5595;BME280;1003;48.002;7.788;2023-02-19T04:35:43;99927.31;;;10.23;100.00
5595;BME280;1003;48.002;7.788;2023-02-19T04:38:12;99914.72;;;10.19;100.00
5595;BME280;1003;48.002;7.788;2023-02-19T04:40:39;99929.00;;;10.24;100.00
5595;BME280;1003;48.002;7.788;2023-02-19T04:43:06;99925.56;;;10.13;100.00
5595;BME280;1003;48.002;7.788;2023-02-19T04:45:33;99921.38;;;10.09;100.00
5595;BME280;1003;48.002;7.788;2023-02-19T04:48:03;99936.41;;;10.06;100.00
5595;BME280;1003;48.002;7.788;2023-02-19T04:50:30;99938.13;;;10.12;100.00
5595;BME280;1003;48.002;7.788;2023-02-19T04:52:57;99943.97;;;10.09;100.00
5595;BME280;1003;48.002;7.788;2023-02-19T04:55:25;99951.50;;;10.02;100.00
5595;BME280;1003;48.002;7.788;2023-02-19T04:57:52;99960.72;;;10.07;100.00
5595;BME280;1003;48.002;7.788;2023-02-19T05:00:20;99969.03;;;9.97;100.00
5595;BME280;1003;48.002;7.788;2023-02-19T05:02:47;99964.00;;;9.91;100.00
5595;BME280;1003;48.002;7.788;2023-02-19T05:05:14;99972.31;;;9.90;100.00
5595;BME280;1003;48.002;7.788;2023-02-19T05:07:41;99996.66;;;9.95;100.00
5595;BME280;1003;48.002;7.788;2023-02-19T05:10:08;99984.94;;;9.99;100.00
5595;BME280;1003;48.002;7.788;2023-02-19T05:12:36;99994.13;;;9.94;100.00
5595;BME280;1003;48.002;7.788;2023-02-19T05:15:04;100002.53;;;9.96;100.00
5595;BME280;1003;48.002;7.788;2023-02-19T05:17:32;100000.84;;;9.96;100.00
5595;BME280;1003;48.002;7.788;2023-02-19T05:20:00;100009.22;;;9.98;100.00
5595;BME280;1003;48.002;7.788;2023-02-19T05:22:28;100020.06;;;9.93;100.00
5595;BME280;1003;48.002;7.788;2023-02-19T05:24:55;100032.66;;;9.96;100.00
5595;BME280;1003;48.002;7.788;2023-02-19T05:27:22;100031.78;;;9.91;100.00
5595;BME280;1003;48.002;7.788;2023-02-19T05:29:51;100044.31;;;9.86;100.00
5595;BME280;1003;48.002;7.788;2023-02-19T05:32:18;100052.72;;;9.94;100.00
5595;BME280;1003;48.002;7.788;2023-02-19T05:34:45;100042.59;;;9.84;100.00
5595;BME280;1003;48.002;7.788;2023-02-19T05:37:12;100060.13;;;9.78;100.00
5595;BME280;1003;48.002;7.788;2023-02-19T05:39:39;100063.53;;;9.81;100.00
5595;BME280;1003;48.002;7.788;2023-02-19T05:42:06;100081.19;;;9.92;100.00
5595;BME280;1003;48.002;7.788;2023-02-19T05:44:33;100081.19;;;9.92;100.00
5595;BME280;1003;48.002;7.788;2023-02-19T05:47:01;100081.13;;;9.86;100.00
5595;BME280;1003;48.002;7.788;2023-02-19T05:49:28;100086.16;;;9.86;100.00
5595;BME280;1003;48.002;7.788;2023-02-19T05:51:55;100098.63;;;9.77;100.00
5595;BME280;1003;48.002;7.788;2023-02-19T05:54:22;100101.94;;;9.69;100.00
5595;BME280;1003;48.002;7.788;2023-02-19T05:56:49;100119.56;;;9.77;100.00
5595;BME280;1003;48.002;7.788;2023-02-19T05:59:18;100122.91;;;9.78;100.00
5595;BME280;1003;48.002;7.788;2023-02-19T06:01:48;100127.06;;;9.74;100.00
5595;BME280;1003;48.002;7.788;2023-02-19T06:04:17;100127.88;;;9.73;100.00
5595;BME280;1003;48.002;7.788;2023-02-19T06:06:46;100121.97;;;9.65;100.00
5595;BME280;1003;48.002;7.788;2023-02-19T06:09:13;100144.56;;;9.66;100.00
5595;BME280;1003;48.002;7.788;2023-02-19T06:11:40;100139.50;;;9.60;100.00
5595;BME280;1003;48.002;7.788;2023-02-19T06:14:11;100156.28;;;9.66;100.00
5595;BME280;1003;48.002;7.788;2023-02-19T06:16:38;100159.63;;;9.68;100.00
5595;BME280;1003;48.002;7.788;2023-02-19T06:19:05;100168.00;;;9.65;100.00
5595;BME280;1003;48.002;7.788;2023-02-19T06:21:34;100180.50;;;9.62;100.00
5595;BME280;1003;48.002;7.788;2023-02-19T06:24:04;100183.03;;;9.64;100.00
5595;BME280;1003;48.002;7.788;2023-02-19T06:26:32;100188.78;;;9.54;100.00
5595;BME280;1003;48.002;7.788;2023-02-19T06:29:00;100203.00;;;9.53;100.00
5595;BME280;1003;48.002;7.788;2023-02-19T06:31:27;100209.81;;;9.63;100.00
5595;BME280;1003;48.002;7.788;2023-02-19T06:33:54;100216.47;;;9.63;100.00
5595;BME280;1003;48.002;7.788;2023-02-19T06:36:22;100220.66;;;9.61;100.00
5595;BME280;1003;48.002;7.788;2023-02-19T06:38:51;100233.16;;;9.56;100.00
5595;BME280;1003;48.002;7.788;2023-02-19T06:41:18;100233.97;;;9.55;100.00
5595;BME280;1003;48.002;7.788;2023-02-19T06:43:45;100247.31;;;9.50;100.00
5595;BME280;1003;48.002;7.788;2023-02-19T06:46:12;100247.41;;;9.59;100.00
5595;BME280;1003;48.002;7.788;2023-02-19T06:48:41;100254.94;;;9.59;100.00
5595;BME280;1003;48.002;7.788;2023-02-19T06:51:11;100260.81;;;9.59;100.00
5595;BME280;1003;48.002;7.788;2023-02-19T06:53:38;100270.72;;;9.47;100.00
5595;BME280;1003;48.002;7.788;2023-02-19T06:56:22;100285.78;;;9.49;100.00
5595;BME280;1003;48.002;7.788;2023-02-19T06:58:50;100298.38;;;9.53;100.00
5595;BME280;1003;48.002;7.788;2023-02-19T07:01:17;100292.53;;;9.53;100.00
5595;BME280;1003;48.002;7.788;2023-02-19T07:03:44;100314.28;;;9.55;100.00
5595;BME280;1003;48.002;7.788;2023-02-19T07:06:12;100324.25;;;9.49;100.00
5595;BME280;1003;48.002;7.788;2023-02-19T07:08:39;100339.38;;;9.54;100.00
5595;BME280;1003;48.002;7.788;2023-02-19T07:11:07;100347.00;;;9.61;100.00
5595;BME280;1003;48.002;7.788;2023-02-19T07:13:34;100355.34;;;9.59;100.00
5595;BME280;1003;48.002;7.788;2023-02-19T07:16:06;100366.16;;;9.56;100.00
5595;BME280;1003;48.002;7.788;2023-02-19T07:18:34;100368.72;;;9.59;100.00
5595;BME280;1003;48.002;7.788;2023-02-19T07:21:02;100384.00;;;9.75;100.00
5595;BME280;1003;48.002;7.788;2023-02-19T07:23:29;100384.09;;;9.84;100.00
5595;BME280;1003;48.002;7.788;2023-02-19T07:25:57;100383.19;;;9.79;100.00
5595;BME280;1003;48.002;7.788;2023-02-19T07:28:25;100398.31;;;9.83;100.00
5595;BME280;1003;48.002;7.788;2023-02-19T07:30:53;100386.53;;;9.79;100.00
5595;BME280;1003;48.002;7.788;2023-02-19T07:33:25;100407.59;;;9.89;100.00
5595;BME280;1003;48.002;7.788;2023-02-19T07:35:52;100388.38;;;9.92;100.00
5595;BME280;1003;48.002;7.788;2023-02-19T07:38:21;100411.88;;;9.96;100.00
5595;BME280;1003;48.002;7.788;2023-02-19T07:40:52;100418.56;;;9.95;100.00
5595;BME280;1003;48.002;7.788;2023-02-19T07:43:20;100430.25;;;9.95;100.00
5595;BME280;1003;48.002;7.788;2023-02-19T07:45:48;100449.63;;;10.02;100.00
5595;BME280;1003;48.002;7.788;2023-02-19T07:48:16;100460.44;;;9.96;100.00
5595;BME280;1003;48.002;7.788;2023-02-19T07:50:50;100474.81;;;10.08;100.00
5595;BME280;1003;48.002;7.788;2023-02-19T07:53:18;100480.75;;;10.13;100.00
5595;BME280;1003;48.002;7.788;2023-02-19T07:55:45;100483.38;;;10.22;100.00
5595;BME280;1003;48.002;7.788;2023-02-19T07:58:12;100483.69;;;10.44;100.00
5595;BME280;1003;48.002;7.788;2023-02-19T08:00:39;100478.41;;;10.25;100.00
5595;BME280;1003;48.002;7.788;2023-02-19T08:03:08;100482.59;;;10.27;100.00
5595;BME280;1003;48.002;7.788;2023-02-19T08:05:38;100486.09;;;10.38;100.00
5595;BME280;1003;48.002;7.788;2023-02-19T08:08:07;100486.13;;;10.39;100.00
5595;BME280;1003;48.002;7.788;2023-02-19T08:10:35;100485.41;;;10.51;100.00
5595;BME280;1003;48.002;7.788;2023-02-19T08:13:20;100475.59;;;10.71;100.00
5595;BME280;1003;48.002;7.788;2023-02-19T08:15:53;100480.00;;;10.95;100.00
5595;BME280;1003;48.002;7.788;2023-02-19T08:18:24;100473.47;;;11.15;100.00
5595;BME280;1003;48.002;7.788;2023-02-19T08:20:53;100456.06;;;11.41;100.00
5595;BME280;1003;48.002;7.788;2023-02-19T08:23:20;100425.06;;;11.54;100.00
5595;BME280;1003;48.002;7.788;2023-02-19T08:25:49;100403.19;;;11.43;100.00
5595;BME280;1003;48.002;7.788;2023-02-19T08:28:18;100397.56;;;11.87;100.00
5595;BME280;1003;48.002;7.788;2023-02-19T08:30:46;100380.91;;;12.31;100.00
5595;BME280;1003;48.002;7.788;2023-02-19T08:33:15;100339.75;;;12.40;100.00
5595;BME280;1003;48.002;7.788;2023-02-19T08:35:45;100291.84;;;12.23;100.00
5595;BME280;1003;48.002;7.788;2023-02-19T08:38:14;100273.31;;;12.04;100.00
5595;BME280;1003;48.002;7.788;2023-02-19T08:40:42;100275.84;;;12.26;100.00
5595;BME280;1003;48.002;7.788;2023-02-19T08:43:11;100242.25;;;12.16;100.00
5595;BME280;1003;48.002;7.788;2023-02-19T08:45:41;100239.75;;;12.18;100.00
5595;BME280;1003;48.002;7.788;2023-02-19T08:48:09;100233.84;;;12.51;100.00
5595;BME280;1003;48.002;7.788;2023-02-19T08:50:37;100218.72;;;12.51;100.00
5595;BME280;1003;48.002;7.788;2023-02-19T08:53:06;100201.03;;;12.58;100.00
5595;BME280;1003;48.002;7.788;2023-02-19T08:55:35;100185.09;;;12.59;100.00
5595;BME280;1003;48.002;7.788;2023-02-19T08:58:03;100157.31;;;12.70;100.00
5595;BME280;1003;48.002;7.788;2023-02-19T09:00:30;100136.25;;;12.79;100.00
5595;BME280;1003;48.002;7.788;2023-02-19T09:02:57;100113.56;;;12.68;100.00
5595;BME280;1003;48.002;7.788;2023-02-19T09:05:25;100117.72;;;12.83;100.00
5595;BME280;1003;48.002;7.788;2023-02-19T09:07:52;100093.47;;;12.50;100.00
5595;BME280;1003;48.002;7.788;2023-02-19T09:10:20;100106.88;;;12.53;100.00
5595;BME280;1003;48.002;7.788;2023-02-19T09:12:47;100091.81;;;12.44;100.00
5595;BME280;1003;48.002;7.788;2023-02-19T09:15:14;100085.03;;;12.60;100.00
5595;BME280;1003;48.002;7.788;2023-02-19T09:17:42;100073.25;;;12.62;100.00
5595;BME280;1003;48.002;7.788;2023-02-19T09:20:10;100056.28;;;12.95;100.00
5595;BME280;1003;48.002;7.788;2023-02-19T09:22:37;100036.75;;;13.23;100.00
5595;BME280;1003;48.002;7.788;2023-02-19T09:25:05;99992.91;;;13.37;100.00
5595;BME280;1003;48.002;7.788;2023-02-19T09:27:33;99990.06;;;13.71;100.00
5595;BME280;1003;48.002;7.788;2023-02-19T09:30:00;99956.00;;;14.04;100.00
5595;BME280;1003;48.002;7.788;2023-02-19T09:32:30;99925.75;;;14.00;100.00
5595;BME280;1003;48.002;7.788;2023-02-19T09:34:57;99904.03;;;13.83;100.00
5595;BME280;1003;48.002;7.788;2023-02-19T09:37:24;99885.75;;;13.61;100.00
5595;BME280;1003;48.002;7.788;2023-02-19T09:39:53;99899.34;;;13.51;100.00
5595;BME280;1003;48.002;7.788;2023-02-19T09:42:23;99890.16;;;13.43;100.00
5595;BME280;1003;48.002;7.788;2023-02-19T09:44:55;99895.06;;;13.56;100.00
5595;BME280;1003;48.002;7.788;2023-02-19T09:47:25;99890.00;;;13.58;100.00
5595;BME280;1003;48.002;7.788;2023-02-19T09:49:57;99883.09;;;13.74;100.00
5595;BME280;1003;48.002;7.788;2023-02-19T09:52:32;99882.19;;;13.79;100.00
5595;BME280;1003;48.002;7.788;2023-02-19T09:55:12;99878.06;;;13.72;100.00
5595;BME280;1003;48.002;7.788;2023-02-19T09:57:40;99875.06;;;14.09;100.00
5595;BME280;1003;48.002;7.788;2023-02-19T10:00:21;99860.00;;;14.01;100.00
5595;BME280;1003;48.002;7.788;2023-02-19T10:02:56;99856.13;;;14.37;100.00
5595;BME280;1003;48.002;7.788;2023-02-19T10:05:26;99853.59;;;14.37;100.00
5595;BME280;1003;48.002;7.788;2023-02-19T10:07:54;99850.19;;;14.40;100.00
5595;BME280;1003;48.002;7.788;2023-02-19T10:10:29;99841.88;;;14.30;100.00
5595;BME280;1003;48.002;7.788;2023-02-19T10:13:12;99836.81;;;14.32;100.00
5595;BME280;1003;48.002;7.788;2023-02-19T10:15:47;99839.13;;;14.45;100.00
5595;BME280;1003;48.002;7.788;2023-02-19T10:18:18;99835.44;;;15.17;100.00
5595;BME280;1003;48.002;7.788;2023-02-19T10:20:47;99838.16;;;15.52;100.00
5595;BME280;1003;48.002;7.788;2023-02-19T10:23:15;99880.00;;;15.72;100.00
5595;BME280;1003;48.002;7.788;2023-02-19T10:25:47;99895.34;;;15.65;100.00
5595;BME280;1003;48.002;7.788;2023-02-19T10:28:18;99919.13;;;15.58;100.00
5595;BME280;1003;48.002;7.788;2023-02-19T10:30:53;99928.97;;;15.27;100.00
5595;BME280;1003;48.002;7.788;2023-02-19T10:33:21;99918.13;;;15.18;100.00
5595;BME280;1003;48.002;7.788;2023-02-19T10:35:57;99926.19;;;14.89;100.00
5595;BME280;1003;48.002;7.788;2023-02-19T10:38:28;99958.00;;;15.06;100.00
5595;BME280;1003;48.002;7.788;2023-02-19T10:41:04;99977.16;;;15.23;100.00
5595;BME280;1003;48.002;7.788;2023-02-19T10:43:36;99994.66;;;14.82;100.00
5595;BME280;1003;48.002;7.788;2023-02-19T10:46:17;99996.84;;;14.43;100.00
5595;BME280;1003;48.002;7.788;2023-02-19T10:48:52;99972.31;;;14.51;100.00
5595;BME280;1003;48.002;7.788;2023-02-19T10:51:29;99963.28;;;14.29;100.00
5595;BME280;1003;48.002;7.788;2023-02-19T10:54:05;99963.44;;;14.16;100.00
5595;BME280;1003;48.002;7.788;2023-02-19T10:56:33;99955.72;;;14.26;100.00
5595;BME280;1003;48.002;7.788;2023-02-19T10:59:22;99958.00;;;14.49;100.00
5595;BME280;1003;48.002;7.788;2023-02-19T11:01:56;99945.06;;;14.05;100.00
5595;BME280;1003;48.002;7.788;2023-02-19T11:04:25;99956.72;;;14.15;100.00
5595;BME280;1003;48.002;7.788;2023-02-19T11:06:52;99957.63;;;14.08;100.00
5595;BME280;1003;48.002;7.788;2023-02-19T11:09:27;99961.75;;;14.17;100.00
5595;BME280;1003;48.002;7.788;2023-02-19T11:11:56;99961.97;;;13.97;100.00
5595;BME280;1003;48.002;7.788;2023-02-19T11:14:25;99968.34;;;14.29;100.00
5595;BME280;1003;48.002;7.788;2023-02-19T11:16:57;99985.06;;;14.40;100.00
5595;BME280;1003;48.002;7.788;2023-02-19T11:19:34;99985.44;;;14.08;100.00
5595;BME280;1003;48.002;7.788;2023-02-19T11:22:26;99985.25;;;14.27;100.00
5595;BME280;1003;48.002;7.788;2023-02-19T11:24:55;99983.91;;;14.66;100.00
5595;BME280;1003;48.002;7.788;2023-02-19T11:27:26;99997.28;;;14.74;100.00
5595;BME280;1003;48.002;7.788;2023-02-19T11:29:53;100032.72;;;14.74;100.00
5595;BME280;1003;48.002;7.788;2023-02-19T11:32:28;100050.47;;;14.71;100.00
5595;BME280;1003;48.002;7.788;2023-02-19T11:35:21;100044.97;;;14.37;100.00
5595;BME280;1003;48.002;7.788;2023-02-19T11:37:56;100029.66;;;14.51;100.00
5595;BME280;1003;48.002;7.788;2023-02-19T11:40:36;100037.75;;;14.77;100.00
5595;BME280;1003;48.002;7.788;2023-02-19T11:43:26;100056.34;;;14.73;100.00
5595;BME280;1003;48.002;7.788;2023-02-19T11:46:02;100060.69;;;14.63;100.00
5595;BME280;1003;48.002;7.788;2023-02-19T11:48:52;100072.66;;;14.51;100.00
5595;BME280;1003;48.002;7.788;2023-02-19T11:51:50;100076.81;;;14.55;100.00
5595;BME280;1003;48.002;7.788;2023-02-19T11:54:46;100107.00;;;14.72;100.00
5595;BME280;1003;48.002;7.788;2023-02-19T11:57:34;100109.25;;;14.93;100.00
5595;BME280;1003;48.002;7.788;2023-02-19T12:00:20;100109.75;;;14.50;100.00
5595;BME280;1003;48.002;7.788;2023-02-19T12:03:33;100093.94;;;14.28;100.00
5595;BME280;1003;48.002;7.788;2023-02-19T12:06:20;100089.00;;;14.17;100.00
5595;BME280;1003;48.002;7.788;2023-02-19T12:09:23;100086.69;;;13.99;100.00
5595;BME280;1003;48.002;7.788;2023-02-19T12:12:15;100086.66;;;14.01;100.00
5595;BME280;1003;48.002;7.788;2023-02-19T12:15:23;100083.53;;;14.59;100.00
5595;BME280;1003;48.002;7.788;2023-02-19T12:18:25;100067.56;;;14.52;100.00
5595;BME280;1003;48.002;7.788;2023-02-19T12:21:16;100077.38;;;14.01;100.00
5595;BME280;1003;48.002;7.788;2023-02-19T12:24:14;100071.13;;;13.44;100.00
5595;BME280;1003;48.002;7.788;2023-02-19T12:27:00;100076.06;;;13.62;100.00
5595;BME280;1003;48.002;7.788;2023-02-19T12:32:55;100070.81;;;13.82;100.00
5595;BME280;1003;48.002;7.788;2023-02-19T12:35:46;100065.63;;;13.96;100.00
5595;BME280;1003;48.002;7.788;2023-02-19T12:38:25;100072.56;;;13.75;100.00
5595;BME280;1003;48.002;7.788;2023-02-19T12:41:22;100075.03;;;13.80;100.00
5595;BME280;1003;48.002;7.788;2023-02-19T12:43:56;100070.06;;;13.71;100.00
5595;BME280;1003;48.002;7.788;2023-02-19T12:46:32;100070.09;;;13.66;100.00
5595;BME280;1003;48.002;7.788;2023-02-19T12:49:09;100062.25;;;13.97;100.00
5595;BME280;1003;48.002;7.788;2023-02-19T12:51:44;100060.59;;;13.92;100.00
5595;BME280;1003;48.002;7.788;2023-02-19T12:54:22;100050.50;;;13.91;100.00
5595;BME280;1003;48.002;7.788;2023-02-19T12:56:56;100042.94;;;13.89;100.00
5595;BME280;1003;48.002;7.788;2023-02-19T12:59:32;100048.88;;;13.88;100.00
5595;BME280;1003;48.002;7.788;2023-02-19T13:02:11;100044.81;;;13.71;100.00
5595;BME280;1003;48.002;7.788;2023-02-19T13:04:46;100013.28;;;14.04;100.00
5595;BME280;1003;48.002;7.788;2023-02-19T13:07:22;100008.13;;;14.14;100.00
5595;BME280;1003;48.002;7.788;2023-02-19T13:09:58;100019.41;;;13.84;100.00
5595;BME280;1003;48.002;7.788;2023-02-19T13:12:31;100018.69;;;13.73;100.00
5595;BME280;1003;48.002;7.788;2023-02-19T13:15:03;100013.59;;;13.76;100.00
5595;BME280;1003;48.002;7.788;2023-02-19T13:17:40;100010.00;;;14.00;100.00
5595;BME280;1003;48.002;7.788;2023-02-19T13:20:23;100005.72;;;14.05;100.00
5595;BME280;1003;48.002;7.788;2023-02-19T13:23:00;99988.09;;;13.99;100.00
5595;BME280;1003;48.002;7.788;2023-02-19T13:26:11;99995.50;;;14.13;100.00
5595;BME280;1003;48.002;7.788;2023-02-19T13:29:07;99999.88;;;13.99;100.00
5595;BME280;1003;48.002;7.788;2023-02-19T13:32:01;100001.72;;;13.84;100.00
5595;BME280;1003;48.002;7.788;2023-02-19T13:34:50;100006.19;;;13.55;100.00
5595;BME280;1003;48.002;7.788;2023-02-19T13:37:21;100006.44;;;13.30;100.00
5595;BME280;1003;48.002;7.788;2023-02-19T13:39:52;100004.75;;;13.29;100.00
5595;BME280;1003;48.002;7.788;2023-02-19T13:42:32;100008.06;;;13.34;100.00
5595;BME280;1003;48.002;7.788;2023-02-19T13:45:03;100002.97;;;13.39;100.00